sensor_id;sensor_type;location;lat;lon;timestamp;temperature;humidity
67186;HTU21D;54116;53.518;49.398;2024-03-02T00:00:07;-14.73;118.99
67186;HTU21D;54116;53.518;49.398;2024-03-02T00:02:46;-14.84;118.99
67186;HTU21D;54116;53.518;49.398;2024-03-02T00:05:13;-14.87;118.99
67186;HTU21D;54116;53.518;49.398;2024-03-02T00:07:42;-14.87;118.99
67186;HTU21D;54116;53.518;49.398;2024-03-02T00:10:10;-14.88;118.99
67186;HTU21D;54116;53.518;49.398;2024-03-02T00:12:39;-14.96;118.99
67186;HTU21D;54116;53.518;49.398;2024-03-02T00:15:42;-15.00;118.99
67186;HTU21D;54116;53.518;49.398;2024-03-02T00:18:12;-14.96;118.99
67186;HTU21D;54116;53.518;49.398;2024-03-02T00:20:39;-15.03;118.99
67186;HTU21D;54116;53.518;49.398;2024-03-02T00:23:08;-15.14;118.99
67186;HTU21D;54116;53.518;49.398;2024-03-02T00:25:39;-15.11;118.99
67186;HTU21D;54116;53.518;49.398;2024-03-02T00:28:18;-15.11;118.99
67186;HTU21D;54116;53.518;49.398;2024-03-02T00:33:19;-15.15;118.99
67186;HTU21D;54116;53.518;49.398;2024-03-02T00:35:46;-15.32;118.99
67186;HTU21D;54116;53.518;49.398;2024-03-02T00:38:13;-15.33;118.99
67186;HTU21D;54116;53.518;49.398;2024-03-02T00:40:42;-15.46;118.99
67186;HTU21D;54116;53.518;49.398;2024-03-02T00:46:05;-15.52;118.99
67186;HTU21D;54116;53.518;49.398;2024-03-02T00:48:31;-15.49;118.99
67186;HTU21D;54116;53.518;49.398;2024-03-02T00:51:03;-15.58;118.99
67186;HTU21D;54116;53.518;49.398;2024-03-02T00:53:31;-15.58;118.99
67186;HTU21D;54116;53.518;49.398;2024-03-02T00:55:59;-15.67;118.99
67186;HTU21D;54116;53.518;49.398;2024-03-02T00:58:25;-15.65;118.99
67186;HTU21D;54116;53.518;49.398;2024-03-02T01:00:51;-15.82;118.99
67186;HTU21D;54116;53.518;49.398;2024-03-02T01:03:17;-15.93;118.99
67186;HTU21D;54116;53.518;49.398;2024-03-02T01:05:45;-15.91;118.99
67186;HTU21D;54116;53.518;49.398;2024-03-02T01:08:11;-15.98;118.99
67186;HTU21D;54116;53.518;49.398;2024-03-02T01:10:39;-15.91;118.99
67186;HTU21D;54116;53.518;49.398;2024-03-02T01:13:05;-15.98;118.99
67186;HTU21D;54116;53.518;49.398;2024-03-02T01:15:31;-15.98;118.99
67186;HTU21D;54116;53.518;49.398;2024-03-02T01:17:58;-16.02;118.99
67186;HTU21D;54116;53.518;49.398;2024-03-02T01:20:24;-16.07;118.99
67186;HTU21D;54116;53.518;49.398;2024-03-02T01:22:50;-16.17;118.99
67186;HTU21D;54116;53.518;49.398;2024-03-02T01:25:17;-16.19;118.99
67186;HTU21D;54116;53.518;49.398;2024-03-02T01:27:43;-16.08;118.99
67186;HTU21D;54116;53.518;49.398;2024-03-02T01:30:09;-16.00;118.99
67186;HTU21D;54116;53.518;49.398;2024-03-02T01:32:39;-16.09;118.99
67186;HTU21D;54116;53.518;49.398;2024-03-02T01:35:06;-16.03;118.99
67186;HTU21D;54116;53.518;49.398;2024-03-02T01:37:33;-16.00;118.99
67186;HTU21D;54116;53.518;49.398;2024-03-02T01:39:59;-16.10;118.99
67186;HTU21D;54116;53.518;49.398;2024-03-02T01:42:25;-16.11;118.99
67186;HTU21D;54116;53.518;49.398;2024-03-02T01:44:51;-16.21;118.99
67186;HTU21D;54116;53.518;49.398;2024-03-02T01:47:17;-16.27;118.99
67186;HTU21D;54116;53.518;49.398;2024-03-02T01:49:44;-16.33;118.99
67186;HTU21D;54116;53.518;49.398;2024-03-02T01:52:10;-16.37;118.99
67186;HTU21D;54116;53.518;49.398;2024-03-02T01:54:37;-16.35;118.99
67186;HTU21D;54116;53.518;49.398;2024-03-02T01:57:03;-16.42;118.99
67186;HTU21D;54116;53.518;49.398;2024-03-02T01:59:29;-16.26;118.99
67186;HTU21D;54116;53.518;49.398;2024-03-02T02:01:56;-16.38;118.99
67186;HTU21D;54116;53.518;49.398;2024-03-02T02:04:22;-16.40;118.99
67186;HTU21D;54116;53.518;49.398;2024-03-02T02:06:53;-16.28;118.99
67186;HTU21D;54116;53.518;49.398;2024-03-02T02:09:19;-16.29;118.99
67186;HTU21D;54116;53.518;49.398;2024-03-02T02:11:45;-16.26;118.99
67186;HTU21D;54116;53.518;49.398;2024-03-02T02:14:12;-16.29;118.99
67186;HTU21D;54116;53.518;49.398;2024-03-02T02:16:38;-16.28;118.99
67186;HTU21D;54116;53.518;49.398;2024-03-02T02:19:04;-16.23;118.99
67186;HTU21D;54116;53.518;49.398;2024-03-02T02:21:31;-16.15;118.99
67186;HTU21D;54116;53.518;49.398;2024-03-02T02:23:57;-16.22;118.99
67186;HTU21D;54116;53.518;49.398;2024-03-02T02:26:23;-16.29;118.99
67186;HTU21D;54116;53.518;49.398;2024-03-02T02:28:49;-16.18;118.99
67186;HTU21D;54116;53.518;49.398;2024-03-02T02:31:15;-16.20;118.99
67186;HTU21D;54116;53.518;49.398;2024-03-02T02:33:42;-16.29;118.99
67186;HTU21D;54116;53.518;49.398;2024-03-02T02:36:08;-16.22;118.99
67186;HTU21D;54116;53.518;49.398;2024-03-02T02:38:39;-16.35;118.99
67186;HTU21D;54116;53.518;49.398;2024-03-02T02:41:06;-16.39;118.99
67186;HTU21D;54116;53.518;49.398;2024-03-02T02:43:32;-16.41;118.99
67186;HTU21D;54116;53.518;49.398;2024-03-02T02:45:58;-16.47;118.99
67186;HTU21D;54116;53.518;49.398;2024-03-02T02:48:26;-16.46;118.99
67186;HTU21D;54116;53.518;49.398;2024-03-02T02:50:52;-16.42;118.99
67186;HTU21D;54116;53.518;49.398;2024-03-02T02:53:18;-16.42;118.99
67186;HTU21D;54116;53.518;49.398;2024-03-02T02:55:45;-16.48;118.99
67186;HTU21D;54116;53.518;49.398;2024-03-02T02:58:11;-16.55;118.99
67186;HTU21D;54116;53.518;49.398;2024-03-02T03:00:37;-16.46;118.99
67186;HTU21D;54116;53.518;49.398;2024-03-02T03:03:03;-16.53;118.99
67186;HTU21D;54116;53.518;49.398;2024-03-02T03:05:29;-16.61;118.99
67186;HTU21D;54116;53.518;49.398;2024-03-02T03:07:56;-16.67;118.99
67186;HTU21D;54116;53.518;49.398;2024-03-02T03:10:22;-16.72;118.99
67186;HTU21D;54116;53.518;49.398;2024-03-02T03:12:51;-16.64;118.99
67186;HTU21D;54116;53.518;49.398;2024-03-02T03:15:17;-16.77;118.99
67186;HTU21D;54116;53.518;49.398;2024-03-02T03:17:44;-16.83;118.99
67186;HTU21D;54116;53.518;49.398;2024-03-02T03:20:11;-16.91;118.99
67186;HTU21D;54116;53.518;49.398;2024-03-02T03:22:38;-16.92;118.99
67186;HTU21D;54116;53.518;49.398;2024-03-02T03:25:05;-16.92;118.99
67186;HTU21D;54116;53.518;49.398;2024-03-02T03:27:31;-16.93;118.99
67186;HTU21D;54116;53.518;49.398;2024-03-02T03:29:58;-17.02;118.99
67186;HTU21D;54116;53.518;49.398;2024-03-02T03:32:24;-16.99;118.99
67186;HTU21D;54116;53.518;49.398;2024-03-02T03:34:50;-16.93;118.99
67186;HTU21D;54116;53.518;49.398;2024-03-02T03:37:16;-16.96;118.99
67186;HTU21D;54116;53.518;49.398;2024-03-02T03:39:43;-16.97;118.99
67186;HTU21D;54116;53.518;49.398;2024-03-02T03:42:09;-16.93;118.99
67186;HTU21D;54116;53.518;49.398;2024-03-02T03:44:35;-16.85;118.99
67186;HTU21D;54116;53.518;49.398;2024-03-02T03:47:01;-16.82;118.99
67186;HTU21D;54116;53.518;49.398;2024-03-02T03:49:28;-16.65;118.99
67186;HTU21D;54116;53.518;49.398;2024-03-02T03:51:55;-16.65;118.99
67186;HTU21D;54116;53.518;49.398;2024-03-02T03:54:21;-16.67;118.99
67186;HTU21D;54116;53.518;49.398;2024-03-02T03:56:47;-16.50;118.99
67186;HTU21D;54116;53.518;49.398;2024-03-02T03:59:13;-16.41;118.99
67186;HTU21D;54116;53.518;49.398;2024-03-02T04:01:39;-16.28;118.99
67186;HTU21D;54116;53.518;49.398;2024-03-02T04:04:05;-16.15;118.99
67186;HTU21D;54116;53.518;49.398;2024-03-02T04:06:31;-16.19;118.99
67186;HTU21D;54116;53.518;49.398;2024-03-02T04:08:57;-16.03;118.99
67186;HTU21D;54116;53.518;49.398;2024-03-02T04:11:23;-15.95;118.99
67186;HTU21D;54116;53.518;49.398;2024-03-02T04:13:49;-15.81;118.99
67186;HTU21D;54116;53.518;49.398;2024-03-02T04:16:16;-15.77;118.99
67186;HTU21D;54116;53.518;49.398;2024-03-02T04:18:42;-15.63;118.99
67186;HTU21D;54116;53.518;49.398;2024-03-02T04:21:08;-15.51;118.99
67186;HTU21D;54116;53.518;49.398;2024-03-02T04:23:34;-15.32;118.99
67186;HTU21D;54116;53.518;49.398;2024-03-02T04:26:00;-15.19;118.99
67186;HTU21D;54116;53.518;49.398;2024-03-02T04:28:26;-15.01;118.99
67186;HTU21D;54116;53.518;49.398;2024-03-02T04:30:52;-14.95;118.99
67186;HTU21D;54116;53.518;49.398;2024-03-02T04:33:18;-14.71;118.99
67186;HTU21D;54116;53.518;49.398;2024-03-02T04:35:44;-14.56;118.99
67186;HTU21D;54116;53.518;49.398;2024-03-02T04:38:10;-14.30;118.99
67186;HTU21D;54116;53.518;49.398;2024-03-02T04:40:36;-13.93;118.99
67186;HTU21D;54116;53.518;49.398;2024-03-02T04:43:03;-13.25;118.99
67186;HTU21D;54116;53.518;49.398;2024-03-02T04:45:29;-12.63;118.99
67186;HTU21D;54116;53.518;49.398;2024-03-02T04:47:55;-12.32;118.99
67186;HTU21D;54116;53.518;49.398;2024-03-02T04:50:22;-12.18;118.99
67186;HTU21D;54116;53.518;49.398;2024-03-02T04:52:48;-12.00;118.99
67186;HTU21D;54116;53.518;49.398;2024-03-02T04:55:14;-11.65;118.99
67186;HTU21D;54116;53.518;49.398;2024-03-02T04:57:43;-11.36;118.99
67186;HTU21D;54116;53.518;49.398;2024-03-02T05:00:10;-11.01;118.99
67186;HTU21D;54116;53.518;49.398;2024-03-02T05:02:38;-10.72;118.99
67186;HTU21D;54116;53.518;49.398;2024-03-02T05:05:04;-10.48;118.99
67186;HTU21D;54116;53.518;49.398;2024-03-02T05:07:31;-10.40;118.99
67186;HTU21D;54116;53.518;49.398;2024-03-02T05:09:57;-10.40;118.99
67186;HTU21D;54116;53.518;49.398;2024-03-02T05:12:23;-10.46;118.99
67186;HTU21D;54116;53.518;49.398;2024-03-02T05:15:08;-10.52;118.99
67186;HTU21D;54116;53.518;49.398;2024-03-02T05:17:42;-10.74;118.99
67186;HTU21D;54116;53.518;49.398;2024-03-02T05:20:11;-10.79;118.99
67186;HTU21D;54116;53.518;49.398;2024-03-02T05:22:38;-10.89;118.99
67186;HTU21D;54116;53.518;49.398;2024-03-02T05:25:05;-10.88;118.99
67186;HTU21D;54116;53.518;49.398;2024-03-02T05:27:32;-10.92;118.99
67186;HTU21D;54116;53.518;49.398;2024-03-02T05:30:02;-10.70;118.99
67186;HTU21D;54116;53.518;49.398;2024-03-02T05:32:28;-10.53;118.99
67186;HTU21D;54116;53.518;49.398;2024-03-02T05:34:55;-10.46;118.99
67186;HTU21D;54116;53.518;49.398;2024-03-02T05:37:21;-10.28;118.99
67186;HTU21D;54116;53.518;49.398;2024-03-02T05:39:47;-10.12;118.99
67186;HTU21D;54116;53.518;49.398;2024-03-02T05:42:13;-9.88;118.99
67186;HTU21D;54116;53.518;49.398;2024-03-02T05:44:39;-9.93;118.99
67186;HTU21D;54116;53.518;49.398;2024-03-02T05:47:05;-9.77;118.99
67186;HTU21D;54116;53.518;49.398;2024-03-02T05:49:35;-9.62;118.99
67186;HTU21D;54116;53.518;49.398;2024-03-02T05:52:01;-9.49;118.99
67186;HTU21D;54116;53.518;49.398;2024-03-02T05:54:27;-9.45;118.99
67186;HTU21D;54116;53.518;49.398;2024-03-02T05:56:53;-9.30;118.99
67186;HTU21D;54116;53.518;49.398;2024-03-02T05:59:19;-9.19;118.99
67186;HTU21D;54116;53.518;49.398;2024-03-02T06:01:46;-8.97;118.99
67186;HTU21D;54116;53.518;49.398;2024-03-02T06:04:13;-8.75;118.99
67186;HTU21D;54116;53.518;49.398;2024-03-02T06:06:40;-8.70;118.99
67186;HTU21D;54116;53.518;49.398;2024-03-02T06:09:06;-8.65;118.99
67186;HTU21D;54116;53.518;49.398;2024-03-02T06:11:39;-8.55;118.99
67186;HTU21D;54116;53.518;49.398;2024-03-02T06:14:07;-8.57;118.99
67186;HTU21D;54116;53.518;49.398;2024-03-02T06:16:34;-8.50;118.99
67186;HTU21D;54116;53.518;49.398;2024-03-02T06:19:00;-8.38;118.99
67186;HTU21D;54116;53.518;49.398;2024-03-02T06:21:26;-8.22;118.99
67186;HTU21D;54116;53.518;49.398;2024-03-02T06:23:53;-8.09;118.99
67186;HTU21D;54116;53.518;49.398;2024-03-02T06:26:19;-7.90;118.99
67186;HTU21D;54116;53.518;49.398;2024-03-02T06:28:46;-8.01;118.99
67186;HTU21D;54116;53.518;49.398;2024-03-02T06:31:12;-7.76;118.99
67186;HTU21D;54116;53.518;49.398;2024-03-02T06:33:39;-7.84;118.99
67186;HTU21D;54116;53.518;49.398;2024-03-02T06:36:06;-7.75;118.99
67186;HTU21D;54116;53.518;49.398;2024-03-02T06:38:35;-8.06;118.99
67186;HTU21D;54116;53.518;49.398;2024-03-02T06:41:01;-8.18;118.99
67186;HTU21D;54116;53.518;49.398;2024-03-02T06:43:27;-8.00;118.99
67186;HTU21D;54116;53.518;49.398;2024-03-02T06:45:53;-7.85;118.99
67186;HTU21D;54116;53.518;49.398;2024-03-02T06:48:19;-7.74;118.99
67186;HTU21D;54116;53.518;49.398;2024-03-02T06:50:47;-7.68;118.99
67186;HTU21D;54116;53.518;49.398;2024-03-02T06:53:17;-7.67;118.99
67186;HTU21D;54116;53.518;49.398;2024-03-02T06:55:46;-7.47;118.99
67186;HTU21D;54116;53.518;49.398;2024-03-02T06:58:13;-7.36;118.99
67186;HTU21D;54116;53.518;49.398;2024-03-02T07:00:41;-7.20;118.99
67186;HTU21D;54116;53.518;49.398;2024-03-02T07:03:08;-7.11;118.99
67186;HTU21D;54116;53.518;49.398;2024-03-02T07:05:35;-6.93;118.99
67186;HTU21D;54116;53.518;49.398;2024-03-02T07:08:01;-6.78;118.99
67186;HTU21D;54116;53.518;49.398;2024-03-02T07:10:28;-6.60;118.99
67186;HTU21D;54116;53.518;49.398;2024-03-02T07:12:54;-6.52;118.99
67186;HTU21D;54116;53.518;49.398;2024-03-02T07:15:20;-6.60;118.99
67186;HTU21D;54116;53.518;49.398;2024-03-02T07:17:52;-6.21;118.99
67186;HTU21D;54116;53.518;49.398;2024-03-02T07:20:18;-6.12;118.99
67186;HTU21D;54116;53.518;49.398;2024-03-02T07:22:44;-6.03;118.99
67186;HTU21D;54116;53.518;49.398;2024-03-02T07:25:11;-5.96;118.99
67186;HTU21D;54116;53.518;49.398;2024-03-02T07:27:38;-5.68;118.99
67186;HTU21D;54116;53.518;49.398;2024-03-02T07:30:04;-5.74;118.99
67186;HTU21D;54116;53.518;49.398;2024-03-02T07:32:30;-5.76;118.99
67186;HTU21D;54116;53.518;49.398;2024-03-02T07:34:57;-5.86;118.99
67186;HTU21D;54116;53.518;49.398;2024-03-02T07:37:23;-5.97;118.99
67186;HTU21D;54116;53.518;49.398;2024-03-02T07:39:50;-5.92;118.99
67186;HTU21D;54116;53.518;49.398;2024-03-02T07:42:17;-5.58;118.99
67186;HTU21D;54116;53.518;49.398;2024-03-02T07:44:46;-5.57;118.99
67186;HTU21D;54116;53.518;49.398;2024-03-02T07:47:12;-5.96;118.99
67186;HTU21D;54116;53.518;49.398;2024-03-02T07:49:39;-5.78;118.99
67186;HTU21D;54116;53.518;49.398;2024-03-02T07:52:05;-5.83;118.99
67186;HTU21D;54116;53.518;49.398;2024-03-02T07:54:31;-5.78;118.99
67186;HTU21D;54116;53.518;49.398;2024-03-02T07:56:57;-5.68;118.99
67186;HTU21D;54116;53.518;49.398;2024-03-02T07:59:23;-5.61;118.99
67186;HTU21D;54116;53.518;49.398;2024-03-02T08:01:50;-5.48;118.99
67186;HTU21D;54116;53.518;49.398;2024-03-02T08:04:17;-5.48;118.99
67186;HTU21D;54116;53.518;49.398;2024-03-02T08:06:43;-5.48;118.99
67186;HTU21D;54116;53.518;49.398;2024-03-02T08:09:09;-5.69;118.99
67186;HTU21D;54116;53.518;49.398;2024-03-02T08:11:36;-5.72;118.99
67186;HTU21D;54116;53.518;49.398;2024-03-02T08:14:03;-5.97;118.99
67186;HTU21D;54116;53.518;49.398;2024-03-02T08:16:29;-5.89;118.99
67186;HTU21D;54116;53.518;49.398;2024-03-02T08:18:55;-5.75;118.99
67186;HTU21D;54116;53.518;49.398;2024-03-02T08:21:24;-5.76;118.99
67186;HTU21D;54116;53.518;49.398;2024-03-02T08:23:50;-5.79;118.99
67186;HTU21D;54116;53.518;49.398;2024-03-02T08:26:16;-5.97;118.99
67186;HTU21D;54116;53.518;49.398;2024-03-02T08:28:42;-6.03;118.99
67186;HTU21D;54116;53.518;49.398;2024-03-02T08:31:09;-5.92;118.99
67186;HTU21D;54116;53.518;49.398;2024-03-02T08:33:35;-6.19;118.99
67186;HTU21D;54116;53.518;49.398;2024-03-02T08:36:01;-6.02;118.99
67186;HTU21D;54116;53.518;49.398;2024-03-02T08:38:28;-5.94;118.99
67186;HTU21D;54116;53.518;49.398;2024-03-02T08:40:55;-6.04;118.99
67186;HTU21D;54116;53.518;49.398;2024-03-02T08:43:21;-5.64;118.99
67186;HTU21D;54116;53.518;49.398;2024-03-02T08:45:48;-5.78;118.99
67186;HTU21D;54116;53.518;49.398;2024-03-02T08:48:16;-5.94;118.99
67186;HTU21D;54116;53.518;49.398;2024-03-02T08:50:43;-5.69;118.99
67186;HTU21D;54116;53.518;49.398;2024-03-02T08:53:09;-5.74;118.99
67186;HTU21D;54116;53.518;49.398;2024-03-02T08:55:35;-5.70;118.99
67186;HTU21D;54116;53.518;49.398;2024-03-02T08:58:02;-5.72;118.99
67186;HTU21D;54116;53.518;49.398;2024-03-02T09:00:28;-5.78;118.99
67186;HTU21D;54116;53.518;49.398;2024-03-02T09:02:54;-5.79;118.99
67186;HTU21D;54116;53.518;49.398;2024-03-02T09:05:20;-5.72;118.99
67186;HTU21D;54116;53.518;49.398;2024-03-02T09:07:46;-5.86;118.99
67186;HTU21D;54116;53.518;49.398;2024-03-02T09:10:12;-5.75;118.99
67186;HTU21D;54116;53.518;49.398;2024-03-02T09:12:38;-5.54;118.99
67186;HTU21D;54116;53.518;49.398;2024-03-02T09:15:07;-5.30;118.99
67186;HTU21D;54116;53.518;49.398;2024-03-02T09:17:33;-5.28;118.99
67186;HTU21D;54116;53.518;49.398;2024-03-02T09:19:59;-5.24;118.99
67186;HTU21D;54116;53.518;49.398;2024-03-02T09:22:25;-5.35;118.99
67186;HTU21D;54116;53.518;49.398;2024-03-02T09:27:37;-5.37;118.99
67186;HTU21D;54116;53.518;49.398;2024-03-02T09:30:12;-5.11;118.99
67186;HTU21D;54116;53.518;49.398;2024-03-02T09:32:39;-4.95;118.99
67186;HTU21D;54116;53.518;49.398;2024-03-02T09:35:10;-4.80;118.99
67186;HTU21D;54116;53.518;49.398;2024-03-02T09:37:38;-4.81;118.99
67186;HTU21D;54116;53.518;49.398;2024-03-02T09:40:04;-4.98;118.99
67186;HTU21D;54116;53.518;49.398;2024-03-02T09:42:32;-5.02;118.99
67186;HTU21D;54116;53.518;49.398;2024-03-02T09:44:58;-5.25;118.99
67186;HTU21D;54116;53.518;49.398;2024-03-02T09:47:24;-5.39;118.99
67186;HTU21D;54116;53.518;49.398;2024-03-02T09:49:51;-5.24;118.99
67186;HTU21D;54116;53.518;49.398;2024-03-02T09:52:17;-5.28;118.99
67186;HTU21D;54116;53.518;49.398;2024-03-02T09:54:43;-5.10;118.99
67186;HTU21D;54116;53.518;49.398;2024-03-02T09:57:10;-5.17;118.99
67186;HTU21D;54116;53.518;49.398;2024-03-02T10:02:20;-5.12;118.99
67186;HTU21D;54116;53.518;49.398;2024-03-02T10:04:49;-5.33;118.99
67186;HTU21D;54116;53.518;49.398;2024-03-02T10:07:17;-5.48;118.99
67186;HTU21D;54116;53.518;49.398;2024-03-02T10:09:45;-5.42;118.99
67186;HTU21D;54116;53.518;49.398;2024-03-02T10:12:12;-5.56;118.99
67186;HTU21D;54116;53.518;49.398;2024-03-02T10:14:39;-5.35;118.99
67186;HTU21D;54116;53.518;49.398;2024-03-02T10:17:08;-5.17;118.99
67186;HTU21D;54116;53.518;49.398;2024-03-02T10:19:34;-5.22;118.99
67186;HTU21D;54116;53.518;49.398;2024-03-02T10:22:02;-5.29;118.99
67186;HTU21D;54116;53.518;49.398;2024-03-02T10:24:36;-5.41;118.99
67186;HTU21D;54116;53.518;49.398;2024-03-02T10:29:39;-5.25;118.99
67186;HTU21D;54116;53.518;49.398;2024-03-02T10:32:09;-5.16;118.99
67186;HTU21D;54116;53.518;49.398;2024-03-02T10:34:35;-5.14;118.99
67186;HTU21D;54116;53.518;49.398;2024-03-02T10:37:02;-5.25;118.99
67186;HTU21D;54116;53.518;49.398;2024-03-02T10:39:28;-5.04;118.99
67186;HTU21D;54116;53.518;49.398;2024-03-02T10:41:55;-4.81;118.99
67186;HTU21D;54116;53.518;49.398;2024-03-02T10:44:22;-4.79;118.99
67186;HTU21D;54116;53.518;49.398;2024-03-02T10:46:51;-4.73;118.99
67186;HTU21D;54116;53.518;49.398;2024-03-02T10:49:19;-4.78;118.99
67186;HTU21D;54116;53.518;49.398;2024-03-02T10:51:48;-4.67;118.99
67186;HTU21D;54116;53.518;49.398;2024-03-02T10:54:14;-4.76;118.99
67186;HTU21D;54116;53.518;49.398;2024-03-02T10:56:42;-4.76;118.99
67186;HTU21D;54116;53.518;49.398;2024-03-02T10:59:35;-4.91;118.99
67186;HTU21D;54116;53.518;49.398;2024-03-02T11:02:03;-5.08;118.99
67186;HTU21D;54116;53.518;49.398;2024-03-02T11:04:30;-5.00;118.99
67186;HTU21D;54116;53.518;49.398;2024-03-02T11:07:02;-4.65;118.99
67186;HTU21D;54116;53.518;49.398;2024-03-02T11:09:28;-4.55;118.99
67186;HTU21D;54116;53.518;49.398;2024-03-02T11:14:31;-4.90;118.99
67186;HTU21D;54116;53.518;49.398;2024-03-02T11:17:02;-4.79;118.99
67186;HTU21D;54116;53.518;49.398;2024-03-02T11:19:30;-4.64;118.99
67186;HTU21D;54116;53.518;49.398;2024-03-02T11:21:57;-4.60;118.99
67186;HTU21D;54116;53.518;49.398;2024-03-02T11:27:05;-4.90;118.99
67186;HTU21D;54116;53.518;49.398;2024-03-02T11:32:03;-4.78;118.99
67186;HTU21D;54116;53.518;49.398;2024-03-02T11:34:37;-4.44;118.99
67186;HTU21D;54116;53.518;49.398;2024-03-02T11:37:06;-4.49;118.99
67186;HTU21D;54116;53.518;49.398;2024-03-02T11:39:32;-4.32;118.99
67186;HTU21D;54116;53.518;49.398;2024-03-02T11:42:00;-4.36;118.99
67186;HTU21D;54116;53.518;49.398;2024-03-02T11:44:28;-4.56;118.99
67186;HTU21D;54116;53.518;49.398;2024-03-02T11:46:59;-4.58;118.99
67186;HTU21D;54116;53.518;49.398;2024-03-02T11:49:38;-4.73;118.99
67186;HTU21D;54116;53.518;49.398;2024-03-02T11:52:05;-4.80;118.99
67186;HTU21D;54116;53.518;49.398;2024-03-02T11:54:40;-4.66;118.99
67186;HTU21D;54116;53.518;49.398;2024-03-02T11:57:07;-4.80;118.99
67186;HTU21D;54116;53.518;49.398;2024-03-02T11:59:34;-4.70;118.99
67186;HTU21D;54116;53.518;49.398;2024-03-02T12:02:00;-5.04;118.99
67186;HTU21D;54116;53.518;49.398;2024-03-02T12:04:26;-4.86;118.99
67186;HTU21D;54116;53.518;49.398;2024-03-02T12:07:00;-4.72;118.99
67186;HTU21D;54116;53.518;49.398;2024-03-02T12:09:29;-4.80;118.99
67186;HTU21D;54116;53.518;49.398;2024-03-02T12:14:33;-4.74;118.99
67186;HTU21D;54116;53.518;49.398;2024-03-02T12:16:59;-4.63;118.99
67186;HTU21D;54116;53.518;49.398;2024-03-02T12:19:26;-4.68;118.99
67186;HTU21D;54116;53.518;49.398;2024-03-02T12:21:53;-4.65;118.99
67186;HTU21D;54116;53.518;49.398;2024-03-02T12:24:21;-4.69;118.99
67186;HTU21D;54116;53.518;49.398;2024-03-02T12:26:49;-4.63;118.99
67186;HTU21D;54116;53.518;49.398;2024-03-02T12:29:16;-4.49;118.99
67186;HTU21D;54116;53.518;49.398;2024-03-02T12:31:44;-4.80;118.99
67186;HTU21D;54116;53.518;49.398;2024-03-02T12:34:15;-4.71;118.99
67186;HTU21D;54116;53.518;49.398;2024-03-02T12:36:41;-4.69;118.99
67186;HTU21D;54116;53.518;49.398;2024-03-02T12:39:08;-4.73;118.99
67186;HTU21D;54116;53.518;49.398;2024-03-02T12:41:39;-4.91;118.99
67186;HTU21D;54116;53.518;49.398;2024-03-02T12:44:06;-5.09;118.99
67186;HTU21D;54116;53.518;49.398;2024-03-02T12:46:32;-5.30;118.99
67186;HTU21D;54116;53.518;49.398;2024-03-02T12:49:07;-5.12;118.99
67186;HTU21D;54116;53.518;49.398;2024-03-02T12:51:33;-5.34;118.99
67186;HTU21D;54116;53.518;49.398;2024-03-02T12:54:00;-5.32;118.99
67186;HTU21D;54116;53.518;49.398;2024-03-02T12:56:27;-5.24;118.99
67186;HTU21D;54116;53.518;49.398;2024-03-02T12:58:54;-5.32;118.99
67186;HTU21D;54116;53.518;49.398;2024-03-02T13:01:20;-5.30;118.99
67186;HTU21D;54116;53.518;49.398;2024-03-02T13:03:50;-5.47;118.99
67186;HTU21D;54116;53.518;49.398;2024-03-02T13:06:19;-5.44;118.99
67186;HTU21D;54116;53.518;49.398;2024-03-02T13:08:46;-5.57;118.99
67186;HTU21D;54116;53.518;49.398;2024-03-02T13:11:16;-5.72;118.99
67186;HTU21D;54116;53.518;49.398;2024-03-02T13:13:42;-5.70;118.99
67186;HTU21D;54116;53.518;49.398;2024-03-02T13:16:27;-5.77;118.99
67186;HTU21D;54116;53.518;49.398;2024-03-02T13:18:53;-6.03;118.99
67186;HTU21D;54116;53.518;49.398;2024-03-02T13:21:21;-6.14;118.99
67186;HTU21D;54116;53.518;49.398;2024-03-02T13:23:47;-6.32;118.99
67186;HTU21D;54116;53.518;49.398;2024-03-02T13:26:13;-6.36;118.99
67186;HTU21D;54116;53.518;49.398;2024-03-02T13:28:39;-6.48;118.99
67186;HTU21D;54116;53.518;49.398;2024-03-02T13:31:05;-6.66;118.99
67186;HTU21D;54116;53.518;49.398;2024-03-02T13:33:32;-6.66;118.99
67186;HTU21D;54116;53.518;49.398;2024-03-02T13:35:58;-6.82;118.99
67186;HTU21D;54116;53.518;49.398;2024-03-02T13:38:24;-6.97;118.99
67186;HTU21D;54116;53.518;49.398;2024-03-02T13:40:50;-7.09;118.99
67186;HTU21D;54116;53.518;49.398;2024-03-02T13:43:17;-7.19;118.99
67186;HTU21D;54116;53.518;49.398;2024-03-02T13:45:44;-7.33;118.99
67186;HTU21D;54116;53.518;49.398;2024-03-02T13:48:10;-7.49;118.99
67186;HTU21D;54116;53.518;49.398;2024-03-02T13:50:37;-7.72;118.99
67186;HTU21D;54116;53.518;49.398;2024-03-02T13:53:03;-7.91;118.99
67186;HTU21D;54116;53.518;49.398;2024-03-02T13:55:30;-7.94;118.99
67186;HTU21D;54116;53.518;49.398;2024-03-02T13:57:56;-8.20;118.99
67186;HTU21D;54116;53.518;49.398;2024-03-02T14:00:22;-8.45;118.99
67186;HTU21D;54116;53.518;49.398;2024-03-02T14:02:48;-8.71;118.99
67186;HTU21D;54116;53.518;49.398;2024-03-02T14:05:16;-8.89;118.99
67186;HTU21D;54116;53.518;49.398;2024-03-02T14:07:42;-9.01;118.99
67186;HTU21D;54116;53.518;49.398;2024-03-02T14:10:08;-9.12;118.99
67186;HTU21D;54116;53.518;49.398;2024-03-02T14:12:37;-9.45;118.99
67186;HTU21D;54116;53.518;49.398;2024-03-02T14:15:03;-9.45;118.99
67186;HTU21D;54116;53.518;49.398;2024-03-02T14:17:30;-9.55;118.99
67186;HTU21D;54116;53.518;49.398;2024-03-02T14:19:58;-9.76;118.99
67186;HTU21D;54116;53.518;49.398;2024-03-02T14:22:25;-9.92;118.99
67186;HTU21D;54116;53.518;49.398;2024-03-02T14:24:51;-10.05;118.99
67186;HTU21D;54116;53.518;49.398;2024-03-02T14:27:17;-10.04;118.99
67186;HTU21D;54116;53.518;49.398;2024-03-02T14:29:44;-10.10;118.99
67186;HTU21D;54116;53.518;49.398;2024-03-02T14:32:10;-10.22;118.99
67186;HTU21D;54116;53.518;49.398;2024-03-02T14:34:37;-10.29;118.99
67186;HTU21D;54116;53.518;49.398;2024-03-02T14:37:04;-10.36;118.99
67186;HTU21D;54116;53.518;49.398;2024-03-02T14:39:30;-10.55;118.99
67186;HTU21D;54116;53.518;49.398;2024-03-02T14:42:00;-10.59;118.99
67186;HTU21D;54116;53.518;49.398;2024-03-02T14:44:27;-10.70;118.99
67186;HTU21D;54116;53.518;49.398;2024-03-02T14:46:53;-10.73;118.99
67186;HTU21D;54116;53.518;49.398;2024-03-02T14:49:19;-10.82;118.99
67186;HTU21D;54116;53.518;49.398;2024-03-02T14:51:45;-10.89;118.99
67186;HTU21D;54116;53.518;49.398;2024-03-02T14:54:11;-10.99;118.99
67186;HTU21D;54116;53.518;49.398;2024-03-02T14:56:37;-11.03;118.99
67186;HTU21D;54116;53.518;49.398;2024-03-02T14:59:04;-11.10;118.99
67186;HTU21D;54116;53.518;49.398;2024-03-02T15:01:30;-11.29;118.99
67186;HTU21D;54116;53.518;49.398;2024-03-02T15:03:56;-11.29;118.99
67186;HTU21D;54116;53.518;49.398;2024-03-02T15:06:22;-11.24;118.99